Terminal Aerodrome Forecast
Issued by NWS Quad Cities IA IL

Home | Current Version | Previous Version | Text Only | Print | Product List | Glossary On
Versions: 1 2 3 4 5 6 7 8 9 10 11 12 13 14 15 16 17 18 19 20 21
042
FTUS43 KDVN 212340
TAFMLI
TAF
KMLI 212340Z 2200/2224 20008KT P6SM BKN060
     FM220200 20010KT P6SM VCTS BKN040CB
      TEMPO 2202/2204 5SM -TSRA OVC030CB
     FM220500 24011KT P6SM BKN060
     FM220800 25010KT 6SM BR VCTS BKN040CB
     FM221000 26010KT 5SM BR BKN015
     FM221500 32014G21KT P6SM SCT035=

USA.gov is the U.S. government's official web portal to all federal, state and local government web resources and services.